createdAt,value
2018-12-13T00:00:46.439Z,25.90
2018-12-13T00:01:46.391Z,27.40
2018-12-13T00:02:46.366Z,28.90
2018-12-13T00:03:46.329Z,28.20
2018-12-13T00:04:46.266Z,28.00
2018-12-13T00:05:46.213Z,27.40
2018-12-13T00:06:46.196Z,27.40
2018-12-13T00:07:46.140Z,27.40
2018-12-13T00:08:46.076Z,28.10
2018-12-13T00:09:46.026Z,27.70
2018-12-13T00:10:45.999Z,28.10
2018-12-13T00:11:45.969Z,27.00
2018-12-13T00:12:45.979Z,27.40
2018-12-13T00:13:45.902Z,28.50
2018-12-13T00:14:45.810Z,27.90
2018-12-13T00:15:45.754Z,25.00
2018-12-13T00:16:45.705Z,27.10
2018-12-13T00:17:45.745Z,26.30
2018-12-13T00:18:45.654Z,25.50
2018-12-13T00:19:45.561Z,25.70
2018-12-13T00:20:45.569Z,28.00
2018-12-13T00:21:45.477Z,26.80
2018-12-13T00:22:45.463Z,25.60
2018-12-13T00:23:45.405Z,26.60
2018-12-13T00:24:45.387Z,26.90
2018-12-13T00:25:45.325Z,26.50
2018-12-13T00:26:45.262Z,24.90
2018-12-13T00:27:45.251Z,26.20
2018-12-13T00:28:45.163Z,25.60
2018-12-13T00:29:45.135Z,26.20
2018-12-13T00:30:45.092Z,27.40
2018-12-13T00:31:45.011Z,26.60
2018-12-13T00:32:44.969Z,24.70
2018-12-13T00:33:44.945Z,25.30
2018-12-13T00:34:44.878Z,25.00
2018-12-13T00:35:44.859Z,26.00
2018-12-13T00:36:44.781Z,25.60
2018-12-13T00:37:44.741Z,24.10
2018-12-13T00:38:44.702Z,25.20
2018-12-13T00:39:44.679Z,26.00
2018-12-13T00:40:44.610Z,27.20
2018-12-13T00:41:44.558Z,25.80
2018-12-13T00:42:44.523Z,26.60
2018-12-13T00:43:44.488Z,27.40
2018-12-13T00:44:44.425Z,26.20
2018-12-13T00:45:44.428Z,25.00
2018-12-13T00:46:44.340Z,26.40
2018-12-13T00:47:44.304Z,24.40
2018-12-13T00:48:44.252Z,24.10
2018-12-13T00:49:44.196Z,25.40
2018-12-13T00:50:44.148Z,26.50
2018-12-13T00:51:44.117Z,25.10
2018-12-13T00:52:44.068Z,26.00
2018-12-13T00:53:44.046Z,26.30
2018-12-13T00:54:43.987Z,26.40
2018-12-13T00:55:43.944Z,25.00
2018-12-13T00:56:43.897Z,24.90
2018-12-13T00:57:43.897Z,23.30
2018-12-13T00:58:43.813Z,25.30
2018-12-13T00:59:43.801Z,26.00
2018-12-13T01:00:43.695Z,24.20
2018-12-13T01:01:43.688Z,25.70
2018-12-13T01:02:43.622Z,23.20
2018-12-13T01:03:43.614Z,25.00
2018-12-13T01:04:43.550Z,24.60
2018-12-13T01:05:43.496Z,27.00
2018-12-13T01:06:46.113Z,25.10
2018-12-13T01:07:43.396Z,26.20
2018-12-13T01:08:43.360Z,26.70
2018-12-13T01:09:43.295Z,26.80
2018-12-13T01:10:43.248Z,27.20
2018-12-13T01:11:43.198Z,27.00
2018-12-13T01:12:43.202Z,26.10
2018-12-13T01:13:43.115Z,25.90
2018-12-13T01:14:43.098Z,27.60
2018-12-13T01:15:43.016Z,27.50
2018-12-13T01:16:42.996Z,27.30
2018-12-13T01:17:42.968Z,26.50
2018-12-13T01:18:42.889Z,25.60
2018-12-13T01:19:42.823Z,26.50
2018-12-13T01:20:42.834Z,25.90
2018-12-13T01:21:42.783Z,25.50
2018-12-13T01:22:42.700Z,26.80
2018-12-13T01:23:42.691Z,27.10
2018-12-13T01:24:42.657Z,26.40
2018-12-13T01:25:42.588Z,26.10
2018-12-13T01:26:42.515Z,27.00
2018-12-13T01:27:42.537Z,26.80
2018-12-13T01:28:42.427Z,26.70
2018-12-13T01:29:42.378Z,25.30
2018-12-13T01:30:42.383Z,26.50
2018-12-13T01:31:42.288Z,25.60
2018-12-13T01:34:15.700Z,24.60
2018-12-13T01:35:15.643Z,25.10
2018-12-13T01:37:08.614Z,25.20
2018-12-13T01:38:08.643Z,24.00
2018-12-13T01:40:01.617Z,24.50
2018-12-13T01:41:01.710Z,23.90
2018-12-13T01:44:26.771Z,24.60
2018-12-13T01:45:26.666Z,24.00
2018-12-13T01:47:21.350Z,25.20
2018-12-13T01:48:21.050Z,24.20
2018-12-13T01:50:15.222Z,25.60
2018-12-13T01:51:14.316Z,25.20
2018-12-13T01:53:08.020Z,26.10
2018-12-13T01:54:07.875Z,25.40
2018-12-13T01:56:00.961Z,24.10
2018-12-13T01:57:00.847Z,25.00
2018-12-13T01:58:53.926Z,24.90
2018-12-13T01:59:54.510Z,25.90
2018-12-13T02:01:48.284Z,24.70
2018-12-13T02:02:48.365Z,26.10
2018-12-13T02:03:48.181Z,25.90
2018-12-13T02:04:48.266Z,25.20
2018-12-13T02:05:48.153Z,24.80
2018-12-13T02:06:47.985Z,25.40
2018-12-13T02:07:47.966Z,25.00
2018-12-13T02:08:47.915Z,25.00
2018-12-13T02:09:47.854Z,25.80
2018-12-13T02:10:47.810Z,25.40
2018-12-13T02:11:47.792Z,25.00
2018-12-13T02:12:47.746Z,26.50
2018-12-13T02:13:47.817Z,26.90
2018-12-13T02:14:47.628Z,27.70
2018-12-13T02:15:47.602Z,25.90
2018-12-13T02:16:47.561Z,25.80
2018-12-13T02:17:47.517Z,27.00
2018-12-13T02:18:47.964Z,24.70
2018-12-13T02:19:47.501Z,25.60
2018-12-13T02:20:47.377Z,25.00
2018-12-13T02:21:47.293Z,23.80
2018-12-13T02:22:47.261Z,23.40
2018-12-13T02:23:47.222Z,24.80
2018-12-13T02:24:47.178Z,25.60
2018-12-13T02:25:47.135Z,25.80
2018-12-13T02:26:47.095Z,25.80
2018-12-13T02:27:47.018Z,25.50
2018-12-13T02:28:46.995Z,26.80
2018-12-13T02:29:46.977Z,26.50
2018-12-13T02:30:46.907Z,26.00
2018-12-13T02:31:46.846Z,24.40
2018-12-13T02:32:46.793Z,25.10
2018-12-13T02:33:46.792Z,24.60
2018-12-13T02:34:46.722Z,25.10
2018-12-13T02:35:46.694Z,25.40
2018-12-13T02:36:46.614Z,25.70
2018-12-13T02:37:46.567Z,24.80
2018-12-13T02:38:46.521Z,26.10
2018-12-13T02:39:46.491Z,24.40
2018-12-13T02:40:46.428Z,25.10
2018-12-13T02:41:46.419Z,27.20
2018-12-13T02:42:46.342Z,25.20
2018-12-13T02:43:46.299Z,27.10
2018-12-13T02:44:46.245Z,26.20
2018-12-13T02:45:46.213Z,25.60
2018-12-13T02:46:46.152Z,26.30
2018-12-13T02:47:46.108Z,25.70
2018-12-13T02:48:46.071Z,27.70
2018-12-13T02:49:46.017Z,26.70
2018-12-13T02:50:45.974Z,26.00
2018-12-13T02:51:45.959Z,27.10
2018-12-13T02:52:45.880Z,27.00
2018-12-13T02:53:45.854Z,26.80
2018-12-13T02:54:45.824Z,25.90
2018-12-13T02:55:45.765Z,27.00
2018-12-13T02:56:45.707Z,27.50
2018-12-13T02:57:45.655Z,26.10
2018-12-13T02:58:45.623Z,27.00
2018-12-13T02:59:45.607Z,27.80
2018-12-13T03:00:45.536Z,27.00
2018-12-13T03:01:45.478Z,26.70
2018-12-13T03:02:45.445Z,27.00
2018-12-13T03:03:45.392Z,26.80
2018-12-13T03:04:45.363Z,28.50
2018-12-13T03:05:45.287Z,27.70
2018-12-13T03:06:45.238Z,26.90
2018-12-13T03:07:45.184Z,27.30
2018-12-13T03:08:45.154Z,28.60
2018-12-13T03:09:45.098Z,28.50
2018-12-13T03:10:45.082Z,28.00
2018-12-13T03:11:45.023Z,27.60
2018-12-13T03:12:44.971Z,27.80
2018-12-13T03:13:44.915Z,28.60
2018-12-13T03:14:44.895Z,27.80
2018-12-13T03:15:44.821Z,28.40
2018-12-13T03:16:44.815Z,27.40
2018-12-13T03:17:44.731Z,27.30
2018-12-13T03:18:44.722Z,26.90
2018-12-13T03:19:44.680Z,27.60
2018-12-13T03:20:44.589Z,27.90
2018-12-13T03:21:44.549Z,26.60
2018-12-13T03:22:44.524Z,28.60
2018-12-13T03:23:44.454Z,27.30
2018-12-13T03:24:44.431Z,27.20
2018-12-13T03:25:44.360Z,26.70
2018-12-13T03:26:44.975Z,26.70
2018-12-13T03:27:44.427Z,26.50
2018-12-13T03:28:44.259Z,27.80
2018-12-13T03:29:44.216Z,26.50
2018-12-13T03:30:44.131Z,26.70
2018-12-13T03:31:44.095Z,26.90
2018-12-13T03:32:44.057Z,26.50
2018-12-13T03:33:44.070Z,28.50
2018-12-13T03:34:43.942Z,29.80
2018-12-13T03:35:44.048Z,31.50
2018-12-13T03:36:43.870Z,34.20
2018-12-13T03:37:43.997Z,31.70
2018-12-13T03:38:43.792Z,31.90
2018-12-13T03:39:43.730Z,33.30
2018-12-13T03:40:43.698Z,30.10
2018-12-13T03:41:43.672Z,30.80
2018-12-13T03:42:43.603Z,31.50
2018-12-13T03:43:43.531Z,29.00
2018-12-13T03:44:43.482Z,30.40
2018-12-13T03:45:43.440Z,30.50
2018-12-13T03:46:43.397Z,30.30
2018-12-13T03:47:43.374Z,31.10
2018-12-13T03:48:43.298Z,31.50
2018-12-13T03:49:43.259Z,32.00
2018-12-13T03:50:43.245Z,31.20
2018-12-13T03:51:43.190Z,31.00
2018-12-13T03:52:43.157Z,32.10
2018-12-13T03:53:43.096Z,31.60
2018-12-13T03:54:43.029Z,28.70
2018-12-13T03:55:43.024Z,29.70
2018-12-13T03:56:42.947Z,29.10
2018-12-13T03:57:42.907Z,28.70
2018-12-13T03:58:42.891Z,29.20
2018-12-13T03:59:42.816Z,28.00
2018-12-13T04:00:42.777Z,27.80
2018-12-13T04:01:42.713Z,27.60
2018-12-13T04:02:42.810Z,29.30
2018-12-13T04:03:42.673Z,28.40
2018-12-13T04:04:42.595Z,29.60
2018-12-13T04:05:42.523Z,30.40
2018-12-13T04:06:42.520Z,31.70
2018-12-13T04:07:42.425Z,30.00
2018-12-13T04:08:42.405Z,29.20
2018-12-13T04:09:42.348Z,29.10
2018-12-13T04:10:42.385Z,29.70
2018-12-13T04:11:42.303Z,28.40
2018-12-13T04:12:42.217Z,27.60
2018-12-13T04:13:42.159Z,28.20
2018-12-13T04:14:42.155Z,28.90
2018-12-13T04:15:42.115Z,28.30
2018-12-13T04:16:42.032Z,28.10
2018-12-13T04:17:42.019Z,28.00
2018-12-13T04:18:41.919Z,26.60
2018-12-13T04:19:41.933Z,27.50
2018-12-13T04:20:41.870Z,27.80
2018-12-13T04:21:41.803Z,28.40
2018-12-13T04:22:41.828Z,28.00
2018-12-13T04:23:41.713Z,27.30
2018-12-13T04:24:41.721Z,28.10
2018-12-13T04:25:41.704Z,26.90
2018-12-13T04:26:41.583Z,28.10
2018-12-13T04:27:41.518Z,27.30
2018-12-13T04:28:41.480Z,28.30
2018-12-13T04:29:41.437Z,29.20
2018-12-13T04:30:41.383Z,31.20
2018-12-13T04:31:41.329Z,27.70
2018-12-13T04:32:41.297Z,28.10
2018-12-13T04:33:41.238Z,29.80
2018-12-13T04:34:41.190Z,27.80
2018-12-13T04:35:41.182Z,28.30
2018-12-13T04:36:41.147Z,30.90
2018-12-13T04:37:41.081Z,27.70
2018-12-13T04:38:41.054Z,27.20
2018-12-13T04:39:40.958Z,28.80
2018-12-13T04:40:40.936Z,28.30
2018-12-13T04:41:40.884Z,29.20
2018-12-13T04:42:40.832Z,29.60
2018-12-13T04:43:40.783Z,28.00
2018-12-13T04:44:40.763Z,28.30
2018-12-13T04:45:40.782Z,29.00
2018-12-13T04:46:40.684Z,28.60
2018-12-13T04:47:40.624Z,28.40
2018-12-13T04:48:40.563Z,27.40
2018-12-13T04:49:40.516Z,28.10
2018-12-13T04:50:40.456Z,29.00
2018-12-13T04:51:40.417Z,30.10
2018-12-13T04:52:40.368Z,30.00
2018-12-13T04:53:40.358Z,31.00
2018-12-13T04:54:40.275Z,28.40
2018-12-13T04:55:40.248Z,28.90
2018-12-13T04:56:40.180Z,30.90
2018-12-13T04:57:40.156Z,30.70
2018-12-13T04:58:40.105Z,31.10
2018-12-13T04:59:40.057Z,31.50
2018-12-13T05:00:40.022Z,32.00
2018-12-13T05:01:39.995Z,31.60
2018-12-13T05:02:40.003Z,30.00
2018-12-13T05:03:39.899Z,30.60
2018-12-13T05:04:39.837Z,30.50
2018-12-13T05:05:40.489Z,30.30
2018-12-13T05:06:39.742Z,29.00
2018-12-13T05:07:41.892Z,28.80
2018-12-13T05:08:39.652Z,30.20
2018-12-13T05:09:39.608Z,29.80
2018-12-13T05:10:39.551Z,30.50
2018-12-13T05:11:39.488Z,29.20
2018-12-13T05:12:39.465Z,29.60
2018-12-13T05:13:39.518Z,29.40
2018-12-13T05:14:39.361Z,29.90
2018-12-13T05:15:39.329Z,30.50
2018-12-13T05:16:39.282Z,29.40
2018-12-13T05:17:39.223Z,29.20
2018-12-13T05:18:39.182Z,28.90
2018-12-13T05:19:39.198Z,29.00
2018-12-13T05:20:39.111Z,29.40
2018-12-13T05:21:39.089Z,28.90
2018-12-13T05:22:39.001Z,29.50
2018-12-13T05:23:38.944Z,29.20
2018-12-13T05:24:38.900Z,29.70
2018-12-13T05:25:38.853Z,28.50
2018-12-13T05:26:38.801Z,27.60
2018-12-13T05:27:38.763Z,28.40
2018-12-13T05:28:38.729Z,28.30
2018-12-13T05:29:38.671Z,29.80
2018-12-13T05:30:38.641Z,29.60
2018-12-13T05:31:38.572Z,29.50
2018-12-13T05:32:38.532Z,28.40
2018-12-13T05:33:38.511Z,28.70
2018-12-13T05:34:38.481Z,28.10
2018-12-13T05:35:38.389Z,28.90
2018-12-13T05:36:38.350Z,29.90
2018-12-13T05:37:38.293Z,29.70
2018-12-13T05:38:38.257Z,28.30
2018-12-13T05:39:38.207Z,28.70
2018-12-13T05:40:38.180Z,29.70
2018-12-13T05:41:38.108Z,28.90
2018-12-13T05:42:38.063Z,27.50
2018-12-13T05:43:38.058Z,28.60
2018-12-13T05:44:37.993Z,29.30
2018-12-13T05:45:37.935Z,28.80
2018-12-13T05:46:37.923Z,29.30
2018-12-13T05:47:37.848Z,29.40
2018-12-13T05:48:37.807Z,28.40
2018-12-13T05:49:37.971Z,28.20
2018-12-13T05:50:37.749Z,30.60
2018-12-13T05:51:37.659Z,30.10
2018-12-13T05:52:37.609Z,29.60
2018-12-13T05:53:37.701Z,29.60
2018-12-13T05:54:37.531Z,28.90
2018-12-13T05:55:37.501Z,29.80
2018-12-13T05:56:37.435Z,29.70
2018-12-13T05:57:37.390Z,29.80
2018-12-13T05:58:37.333Z,30.00
2018-12-13T05:59:37.289Z,29.70
2018-12-13T06:00:37.239Z,30.30
2018-12-13T06:01:37.200Z,30.30
2018-12-13T06:02:37.159Z,29.30
2018-12-13T06:03:37.128Z,28.80
2018-12-13T06:04:37.087Z,28.40
2018-12-13T06:05:37.012Z,29.00
2018-12-13T06:06:36.988Z,28.70
2018-12-13T06:07:36.932Z,29.80
2018-12-13T06:08:36.882Z,27.30
2018-12-13T06:09:36.830Z,29.50
2018-12-13T06:10:36.782Z,29.10
2018-12-13T06:11:36.727Z,28.80
2018-12-13T06:12:36.680Z,26.30
2018-12-13T06:13:36.635Z,28.30
2018-12-13T06:14:36.605Z,28.00
2018-12-13T06:15:36.526Z,27.10
2018-12-13T06:16:36.509Z,28.80
2018-12-13T06:17:36.452Z,28.30
2018-12-13T06:18:36.427Z,29.00
2018-12-13T06:19:36.355Z,28.50
2018-12-13T06:20:36.402Z,27.20
2018-12-13T06:21:36.975Z,29.20
2018-12-13T06:22:36.205Z,28.10
2018-12-13T06:23:36.187Z,27.70
2018-12-13T06:24:36.123Z,27.10
2018-12-13T06:25:36.084Z,29.90
2018-12-13T06:26:36.031Z,28.80
2018-12-13T06:27:35.985Z,29.00
2018-12-13T06:28:35.981Z,28.30
2018-12-13T06:29:41.689Z,29.00
2018-12-13T06:30:35.881Z,29.20
2018-12-13T06:31:35.825Z,28.60
2018-12-13T06:32:35.826Z,28.10
2018-12-13T06:33:35.709Z,29.80
2018-12-13T06:34:35.672Z,30.60
2018-12-13T06:35:35.632Z,30.00
2018-12-13T06:36:35.576Z,29.50
2018-12-13T06:37:35.521Z,32.00
2018-12-13T06:38:35.514Z,31.70
2018-12-13T06:39:35.434Z,33.80
2018-12-13T06:40:35.371Z,29.70
2018-12-13T06:41:35.348Z,30.60
2018-12-13T06:42:35.298Z,30.50
2018-12-13T06:43:35.285Z,30.80
2018-12-13T06:44:35.200Z,29.70
2018-12-13T06:45:35.144Z,30.50
2018-12-13T06:46:35.098Z,31.20
2018-12-13T06:47:35.102Z,30.00
2018-12-13T06:48:35.045Z,30.40
2018-12-13T06:49:34.967Z,30.60
2018-12-13T06:50:34.960Z,32.50
2018-12-13T06:51:34.871Z,31.20
2018-12-13T06:52:34.848Z,31.40
2018-12-13T06:53:34.826Z,31.10
2018-12-13T06:54:34.760Z,30.00
2018-12-13T06:55:34.687Z,31.70
2018-12-13T06:56:34.642Z,30.50
2018-12-13T06:57:34.661Z,32.70
2018-12-13T06:58:34.547Z,32.10
2018-12-13T06:59:34.535Z,32.00
2018-12-13T07:00:34.467Z,31.30
2018-12-13T07:01:34.473Z,32.20
2018-12-13T07:02:34.390Z,32.20
2018-12-13T07:03:34.330Z,30.80
2018-12-13T07:04:34.301Z,30.40
2018-12-13T07:05:34.255Z,29.30
2018-12-13T07:06:34.188Z,29.40
2018-12-13T07:07:34.156Z,29.40
2018-12-13T07:08:34.102Z,28.00
2018-12-13T07:09:34.066Z,28.20
2018-12-13T07:10:34.020Z,27.90
2018-12-13T07:11:33.964Z,28.30
2018-12-13T07:12:33.917Z,28.90
2018-12-13T07:13:33.877Z,28.90
2018-12-13T07:14:33.830Z,29.10
2018-12-13T07:15:33.776Z,27.50
2018-12-13T07:16:33.757Z,28.80
2018-12-13T07:17:33.712Z,30.20
2018-12-13T07:18:33.645Z,30.30
2018-12-13T07:19:33.583Z,31.00
2018-12-13T07:20:33.528Z,29.80
2018-12-13T07:21:33.481Z,30.40
2018-12-13T07:22:33.445Z,29.10
2018-12-13T07:23:33.409Z,28.90
2018-12-13T07:24:33.506Z,31.40
2018-12-13T07:25:33.312Z,29.10
2018-12-13T07:26:33.300Z,31.50
2018-12-13T07:27:33.209Z,32.00
2018-12-13T07:28:33.158Z,30.40
2018-12-13T07:29:33.114Z,31.10
2018-12-13T07:30:33.068Z,31.50
2018-12-13T07:31:33.040Z,31.20
2018-12-13T07:32:32.984Z,31.50
2018-12-13T07:33:32.953Z,32.40
2018-12-13T07:34:32.905Z,30.90
2018-12-13T07:35:32.867Z,30.40
2018-12-13T07:36:32.839Z,29.00
2018-12-13T07:37:32.766Z,29.40
2018-12-13T07:38:32.701Z,30.80
2018-12-13T07:39:32.689Z,29.70
2018-12-13T07:40:32.601Z,30.10
2018-12-13T07:41:32.565Z,29.00
2018-12-13T07:42:32.512Z,28.50
2018-12-13T07:43:32.463Z,29.00
2018-12-13T07:44:32.422Z,28.80
2018-12-13T07:45:32.406Z,29.40
2018-12-13T07:46:32.333Z,29.80
2018-12-13T07:47:32.301Z,29.80
2018-12-13T07:48:32.242Z,31.10
2018-12-13T07:49:32.195Z,31.80
2018-12-13T07:50:32.140Z,30.40
2018-12-13T07:51:32.123Z,30.10
2018-12-13T07:52:32.051Z,30.40
2018-12-13T07:53:32.020Z,31.00
2018-12-13T07:54:31.987Z,31.60
2018-12-13T07:55:31.956Z,31.90
2018-12-13T07:56:31.886Z,31.40
2018-12-13T07:57:31.847Z,31.00
2018-12-13T07:58:31.775Z,31.60
2018-12-13T07:59:31.757Z,29.60
2018-12-13T08:00:31.668Z,29.50
2018-12-13T08:01:32.594Z,30.30
2018-12-13T08:02:31.610Z,30.80
2018-12-13T08:03:31.551Z,33.00
2018-12-13T08:04:31.501Z,31.60
2018-12-13T08:05:31.491Z,31.80
2018-12-13T08:06:31.404Z,32.40
2018-12-13T08:07:31.352Z,32.50
2018-12-13T08:08:31.325Z,33.10
2018-12-13T08:09:31.279Z,33.40
2018-12-13T08:10:31.257Z,33.10
2018-12-13T08:11:31.164Z,33.70
2018-12-13T08:12:31.152Z,33.90
2018-12-13T08:13:31.090Z,31.80
2018-12-13T08:14:31.034Z,33.90
2018-12-13T08:15:30.988Z,33.40
2018-12-13T08:16:30.949Z,34.10
2018-12-13T08:17:30.891Z,34.90
2018-12-13T08:18:30.881Z,36.10
2018-12-13T08:19:30.839Z,35.10
2018-12-13T08:20:30.762Z,36.10
2018-12-13T08:21:30.719Z,34.50
2018-12-13T08:22:30.690Z,35.50
2018-12-13T08:23:30.644Z,34.10
2018-12-13T08:24:30.582Z,35.60
2018-12-13T08:25:30.560Z,35.60
2018-12-13T08:26:30.494Z,35.50
2018-12-13T08:27:30.451Z,34.20
2018-12-13T08:28:30.423Z,36.00
2018-12-13T08:29:30.369Z,36.70
2018-12-13T08:30:30.303Z,36.60
2018-12-13T08:31:30.244Z,39.90
2018-12-13T08:32:30.267Z,36.60
2018-12-13T08:33:30.189Z,37.70
2018-12-13T08:34:30.127Z,37.00
2018-12-13T08:35:30.087Z,39.30
2018-12-13T08:36:30.026Z,38.40
2018-12-13T08:37:29.985Z,36.50
2018-12-13T08:38:29.984Z,37.70
2018-12-13T08:39:29.907Z,38.10
2018-12-13T08:40:29.835Z,37.00
2018-12-13T08:41:29.802Z,39.80
2018-12-13T08:42:29.744Z,38.50
2018-12-13T08:43:29.719Z,37.70
2018-12-13T08:44:29.682Z,38.80
2018-12-13T08:45:29.647Z,37.20
2018-12-13T08:46:29.616Z,38.90
2018-12-13T08:47:29.529Z,39.00
2018-12-13T08:48:29.486Z,39.10
2018-12-13T08:49:29.470Z,37.30
2018-12-13T08:50:29.463Z,37.90
2018-12-13T08:51:29.344Z,38.00
2018-12-13T08:52:29.298Z,36.90
2018-12-13T08:53:29.292Z,36.70
2018-12-13T08:54:29.234Z,35.50
2018-12-13T08:55:29.179Z,34.50
2018-12-13T08:56:29.108Z,34.30
2018-12-13T08:57:29.073Z,35.90
2018-12-13T08:58:29.019Z,35.80
2018-12-13T08:59:29.001Z,36.10
2018-12-13T09:00:28.956Z,34.00
2018-12-13T09:01:28.877Z,35.00
2018-12-13T09:02:28.851Z,35.60
2018-12-13T09:03:28.838Z,35.00
2018-12-13T09:04:28.751Z,33.10
2018-12-13T09:05:28.785Z,33.60
2018-12-13T09:06:28.672Z,33.60
2018-12-13T09:07:28.606Z,32.50
2018-12-13T09:08:33.593Z,35.10
2018-12-13T09:09:28.525Z,32.80
2018-12-13T09:10:28.505Z,33.80
2018-12-13T09:11:28.442Z,33.70
2018-12-13T09:12:28.401Z,33.10
2018-12-13T09:13:28.348Z,33.80
2018-12-13T09:14:28.329Z,32.40
2018-12-13T09:15:28.249Z,33.20
2018-12-13T09:16:31.447Z,32.10
2018-12-13T09:17:28.169Z,31.70
2018-12-13T09:18:28.191Z,32.80
2018-12-13T09:19:28.192Z,32.40
2018-12-13T09:20:28.037Z,33.50
2018-12-13T09:21:27.988Z,32.30
2018-12-13T09:22:27.938Z,33.50
2018-12-13T09:23:27.921Z,31.30
2018-12-13T09:24:27.877Z,33.80
2018-12-13T09:25:27.812Z,32.50
2018-12-13T09:26:27.796Z,32.30
2018-12-13T09:27:27.770Z,33.20
2018-12-13T09:28:27.686Z,32.10
2018-12-13T09:29:27.646Z,32.00
2018-12-13T09:30:27.597Z,31.30
2018-12-13T09:31:27.579Z,31.30
2018-12-13T09:32:27.506Z,32.80
2018-12-13T09:33:27.607Z,32.70
2018-12-13T09:34:27.435Z,33.60
2018-12-13T09:35:27.364Z,33.00
2018-12-13T09:36:27.353Z,32.10
2018-12-13T09:37:27.296Z,31.30
2018-12-13T09:38:27.454Z,30.80
2018-12-13T09:39:27.214Z,30.80
2018-12-13T09:40:27.171Z,30.00
2018-12-13T09:41:27.100Z,29.50
2018-12-13T09:42:27.075Z,30.00
2018-12-13T09:43:27.043Z,30.50
2018-12-13T09:44:26.985Z,30.70
2018-12-13T09:45:26.929Z,29.40
2018-12-13T09:46:26.929Z,29.90
2018-12-13T09:47:26.838Z,29.60
2018-12-13T09:48:26.847Z,28.70
2018-12-13T09:49:26.761Z,29.00
2018-12-13T09:50:26.760Z,30.50
2018-12-13T09:51:26.710Z,29.30
2018-12-13T09:52:26.629Z,30.40
2018-12-13T09:53:26.608Z,35.70
2018-12-13T09:54:26.549Z,33.60
2018-12-13T09:55:26.495Z,31.10
2018-12-13T09:56:26.472Z,30.80
2018-12-13T09:57:26.400Z,33.70
2018-12-13T09:58:26.404Z,30.90
2018-12-13T09:59:26.342Z,29.30
2018-12-13T10:00:26.290Z,29.60
2018-12-13T10:01:26.303Z,29.90
2018-12-13T10:02:26.196Z,29.50
2018-12-13T10:03:26.211Z,28.10
2018-12-13T10:04:26.109Z,29.30
2018-12-13T10:05:26.094Z,27.50
2018-12-13T10:06:26.110Z,27.60
2018-12-13T10:07:26.022Z,29.70
2018-12-13T10:08:25.964Z,30.60
2018-12-13T10:09:25.927Z,30.50
2018-12-13T10:10:25.894Z,29.10
2018-12-13T10:11:25.822Z,29.90
2018-12-13T10:12:25.825Z,27.70
2018-12-13T10:13:25.822Z,29.90
2018-12-13T10:14:25.734Z,28.70
2018-12-13T10:15:31.818Z,28.90
2018-12-13T10:16:25.632Z,29.20
2018-12-13T10:17:25.595Z,29.40
2018-12-13T10:18:25.589Z,28.80
2018-12-13T10:19:25.542Z,29.40
2018-12-13T10:20:25.478Z,28.60
2018-12-13T10:21:25.450Z,27.70
2018-12-13T10:22:25.447Z,28.70
2018-12-13T10:23:25.342Z,27.20
2018-12-13T10:24:25.332Z,28.50
2018-12-13T10:25:25.288Z,28.00
2018-12-13T10:26:25.267Z,28.50
2018-12-13T10:27:25.221Z,29.80
2018-12-13T10:28:25.169Z,27.90
2018-12-13T10:29:25.149Z,28.10
2018-12-13T10:30:25.091Z,27.90
2018-12-13T10:31:25.054Z,28.40
2018-12-13T10:32:25.040Z,27.10
2018-12-13T10:33:24.987Z,27.30
2018-12-13T10:34:24.940Z,27.80
2018-12-13T10:35:24.899Z,25.20
2018-12-13T10:36:25.660Z,26.20
2018-12-13T10:37:24.829Z,29.10
2018-12-13T10:38:24.807Z,28.90
2018-12-13T10:39:24.757Z,29.10
2018-12-13T10:40:24.719Z,29.20
2018-12-13T10:41:24.700Z,28.20
2018-12-13T10:42:24.643Z,29.00
2018-12-13T10:43:24.623Z,29.20
2018-12-13T10:44:24.571Z,29.80
2018-12-13T10:45:24.533Z,29.10
2018-12-13T10:46:24.525Z,29.80
2018-12-13T10:47:24.442Z,28.00
2018-12-13T10:48:24.424Z,30.00
2018-12-13T10:49:24.385Z,29.70
2018-12-13T10:50:24.331Z,29.20
2018-12-13T10:51:24.314Z,28.50
2018-12-13T10:52:24.276Z,27.80
2018-12-13T10:53:24.229Z,28.00
2018-12-13T10:54:24.202Z,29.80
2018-12-13T10:55:24.133Z,29.00
2018-12-13T10:56:24.134Z,30.00
2018-12-13T10:57:24.049Z,28.20
2018-12-13T10:58:24.023Z,29.10
2018-12-13T10:59:23.997Z,27.70
2018-12-13T11:00:23.947Z,27.70
2018-12-13T11:01:23.908Z,26.20
2018-12-13T11:02:23.859Z,27.80
2018-12-13T11:03:23.820Z,27.80
2018-12-13T11:04:23.770Z,27.40
2018-12-13T11:05:23.750Z,28.40
2018-12-13T11:06:23.706Z,28.70
2018-12-13T11:07:23.671Z,29.80
2018-12-13T11:08:23.620Z,29.40
2018-12-13T11:09:23.570Z,30.20
2018-12-13T11:10:25.535Z,30.10
2018-12-13T11:11:23.489Z,29.30
2018-12-13T11:12:23.448Z,31.50
2018-12-13T11:13:23.425Z,29.70
2018-12-13T11:14:23.389Z,29.40
2018-12-13T11:15:23.319Z,31.10
2018-12-13T11:16:23.292Z,30.50
2018-12-13T11:17:23.305Z,32.90
2018-12-13T11:18:23.214Z,31.20
2018-12-13T11:19:23.156Z,32.20
2018-12-13T11:20:23.150Z,31.20
2018-12-13T11:21:23.079Z,32.10
2018-12-13T11:22:23.057Z,31.70
2018-12-13T11:23:22.979Z,31.10
2018-12-13T11:24:22.952Z,31.90
2018-12-13T11:25:22.911Z,31.00
2018-12-13T11:26:22.857Z,31.50
2018-12-13T11:27:22.845Z,31.10
2018-12-13T11:28:22.783Z,29.30
2018-12-13T11:29:22.765Z,36.90
2018-12-13T11:30:22.710Z,47.20
2018-12-13T11:31:22.677Z,37.50
2018-12-13T11:32:22.603Z,32.10
2018-12-13T11:33:22.556Z,31.90
2018-12-13T11:34:22.524Z,30.60
2018-12-13T11:35:22.516Z,33.10
2018-12-13T11:36:22.443Z,32.20
2018-12-13T11:37:22.415Z,30.80
2018-12-13T11:38:22.349Z,30.90
2018-12-13T11:39:22.319Z,32.80
2018-12-13T11:40:22.251Z,28.60
2018-12-13T11:41:22.213Z,30.60
2018-12-13T11:42:22.164Z,30.90
2018-12-13T11:43:22.132Z,30.00
2018-12-13T11:44:22.082Z,30.40
2018-12-13T11:45:22.093Z,30.80
2018-12-13T11:46:22.014Z,30.20
2018-12-13T11:47:22.457Z,30.60
2018-12-13T11:48:21.913Z,30.20
2018-12-13T11:49:21.882Z,31.50
2018-12-13T11:50:21.831Z,31.00
2018-12-13T11:51:21.810Z,30.90
2018-12-13T11:52:21.739Z,30.70
2018-12-13T11:53:21.687Z,30.40
2018-12-13T11:54:21.656Z,29.70
2018-12-13T11:55:21.662Z,30.80
2018-12-13T11:56:21.587Z,29.10
2018-12-13T11:57:21.579Z,29.30
2018-12-13T11:58:21.486Z,31.20
2018-12-13T11:59:21.436Z,30.60
2018-12-13T12:00:21.379Z,30.60
2018-12-13T12:01:21.351Z,29.30
2018-12-13T12:02:24.161Z,30.00
2018-12-13T12:03:21.276Z,30.40
2018-12-13T12:04:21.219Z,29.70
2018-12-13T12:05:21.181Z,28.60
2018-12-13T12:06:21.162Z,28.50
2018-12-13T12:07:21.089Z,30.10
2018-12-13T12:08:21.037Z,30.00
2018-12-13T12:09:21.033Z,28.80
2018-12-13T12:10:20.982Z,29.00
2018-12-13T12:11:20.926Z,29.20
2018-12-13T12:12:20.870Z,29.40
2018-12-13T12:13:20.821Z,29.60
2018-12-13T12:14:20.810Z,30.50
2018-12-13T12:15:20.751Z,31.10
2018-12-13T12:16:20.704Z,30.70
2018-12-13T12:17:20.648Z,29.50
2018-12-13T12:18:20.621Z,28.30
2018-12-13T12:19:20.600Z,30.00
2018-12-13T12:20:20.515Z,28.80
2018-12-13T12:21:20.530Z,29.10
2018-12-13T12:22:20.423Z,29.80
2018-12-13T12:23:20.421Z,27.50
2018-12-13T12:24:20.348Z,29.70
2018-12-13T12:25:20.311Z,30.10
2018-12-13T12:26:20.281Z,30.70
2018-12-13T12:27:20.212Z,27.10
2018-12-13T12:28:20.181Z,26.60
2018-12-13T12:29:20.138Z,28.30
2018-12-13T12:30:20.096Z,29.50
2018-12-13T12:31:20.041Z,28.70
2018-12-13T12:32:20.009Z,27.90
2018-12-13T12:33:19.959Z,28.30
2018-12-13T12:34:19.917Z,27.50
2018-12-13T12:35:19.866Z,28.50
2018-12-13T12:36:19.828Z,26.90
2018-12-13T12:37:19.782Z,27.10
2018-12-13T12:38:19.730Z,27.20
2018-12-13T12:39:19.669Z,27.70
2018-12-13T12:40:19.659Z,28.60
2018-12-13T12:41:19.653Z,27.00
2018-12-13T12:42:19.545Z,27.40
2018-12-13T12:43:19.508Z,27.00
2018-12-13T12:44:19.462Z,27.50
2018-12-13T12:45:19.421Z,26.60
2018-12-13T12:46:19.383Z,26.30
2018-12-13T12:47:19.366Z,25.90
2018-12-13T12:48:19.428Z,25.00
2018-12-13T12:49:19.293Z,24.90
2018-12-13T12:50:19.373Z,25.80
2018-12-13T12:51:19.197Z,25.10
2018-12-13T12:52:19.139Z,26.20
2018-12-13T12:53:19.108Z,26.10
2018-12-13T12:54:19.112Z,25.60
2018-12-13T12:55:19.012Z,23.90
2018-12-13T12:56:18.962Z,26.90
2018-12-13T12:57:18.929Z,24.40
2018-12-13T12:58:18.868Z,24.40
2018-12-13T12:59:18.816Z,24.60
2018-12-13T13:00:18.766Z,24.20
2018-12-13T13:01:18.734Z,24.70
2018-12-13T13:02:18.696Z,25.40
2018-12-13T13:03:18.672Z,25.00